sensor_id;sensor_type;location;lat;lon;timestamp;pressure;altitude;pressure_sealevel;temperature;humidity
44675;BME280;30388;52.038;-1.478;2023-02-23T00:01:24;64996.30;;;3.47;100.00
44675;BME280;30388;52.038;-1.478;2023-02-23T00:03:53;65001.44;;;3.76;100.00
44675;BME280;30388;52.038;-1.478;2023-02-23T00:06:22;64966.40;;;3.09;100.00
44675;BME280;30388;52.038;-1.478;2023-02-23T00:08:50;64959.96;;;3.23;100.00
44675;BME280;30388;52.038;-1.478;2023-02-23T00:11:18;64970.04;;;3.62;100.00
44675;BME280;30388;52.038;-1.478;2023-02-23T00:13:47;64994.46;;;3.45;100.00
44675;BME280;30388;52.038;-1.478;2023-02-23T00:16:17;64987.93;;;3.59;100.00
44675;BME280;30388;52.038;-1.478;2023-02-23T00:18:46;64962.29;;;3.53;100.00
44675;BME280;30388;52.038;-1.478;2023-02-23T00:21:16;64970.86;;;3.37;100.00
44675;BME280;30388;52.038;-1.478;2023-02-23T00:23:48;64985.44;;;3.82;100.00
44675;BME280;30388;52.038;-1.478;2023-02-23T00:26:16;64993.51;;;3.65;100.00
44675;BME280;30388;52.038;-1.478;2023-02-23T00:28:43;64960.39;;;3.23;100.00
44675;BME280;30388;52.038;-1.478;2023-02-23T00:31:10;64977.10;;;3.45;100.00
44675;BME280;30388;52.038;-1.478;2023-02-23T00:33:37;65023.38;;;3.81;100.00
44675;BME280;30388;52.038;-1.478;2023-02-23T00:36:08;65067.68;;;4.15;100.00
44675;BME280;30388;52.038;-1.478;2023-02-23T00:38:36;65044.79;;;4.09;100.00
44675;BME280;30388;52.038;-1.478;2023-02-23T00:41:04;65085.10;;;4.11;100.00
44675;BME280;30388;52.038;-1.478;2023-02-23T00:43:33;65148.42;;;4.91;100.00
44675;BME280;30388;52.038;-1.478;2023-02-23T00:46:00;65126.68;;;4.64;100.00
44675;BME280;30388;52.038;-1.478;2023-02-23T00:48:28;65156.76;;;5.02;100.00
44675;BME280;30388;52.038;-1.478;2023-02-23T00:50:58;65101.22;;;4.31;100.00
44675;BME280;30388;52.038;-1.478;2023-02-23T00:53:25;65055.54;;;4.22;100.00
44675;BME280;30388;52.038;-1.478;2023-02-23T00:55:53;65089.06;;;4.43;100.00
44675;BME280;30388;52.038;-1.478;2023-02-23T00:58:20;65070.47;;;4.19;100.00
44675;BME280;30388;52.038;-1.478;2023-02-23T01:00:47;65097.82;;;4.27;100.00
44675;BME280;30388;52.038;-1.478;2023-02-23T01:03:15;65132.47;;;4.71;100.00
44675;BME280;30388;52.038;-1.478;2023-02-23T01:05:42;65117.02;;;4.52;100.00
44675;BME280;30388;52.038;-1.478;2023-02-23T01:08:09;65168.18;;;4.95;100.00
44675;BME280;30388;52.038;-1.478;2023-02-23T01:10:39;65130.98;;;4.69;100.00
44675;BME280;30388;52.038;-1.478;2023-02-23T01:13:07;65109.26;;;4.42;100.00
44675;BME280;30388;52.038;-1.478;2023-02-23T01:15:34;65079.91;;;4.31;100.00
44675;BME280;30388;52.038;-1.478;2023-02-23T01:18:01;65104.95;;;4.36;100.00
44675;BME280;30388;52.038;-1.478;2023-02-23T01:20:29;65087.54;;;4.14;100.00
44675;BME280;30388;52.038;-1.478;2023-02-23T01:22:56;65096.83;;;4.26;100.00
44675;BME280;30388;52.038;-1.478;2023-02-23T01:25:23;65126.64;;;4.63;100.00
44675;BME280;30388;52.038;-1.478;2023-02-23T01:27:51;65147.93;;;4.69;100.00
44675;BME280;30388;52.038;-1.478;2023-02-23T01:30:18;65143.65;;;4.63;100.00
44675;BME280;30388;52.038;-1.478;2023-02-23T01:32:46;65101.85;;;4.60;100.00
44675;BME280;30388;52.038;-1.478;2023-02-23T01:35:13;65040.84;;;4.03;100.00
44675;BME280;30388;52.038;-1.478;2023-02-23T01:37:42;65064.54;;;4.34;100.00
44675;BME280;30388;52.038;-1.478;2023-02-23T01:40:14;65034.71;;;3.95;100.00
44675;BME280;30388;52.038;-1.478;2023-02-23T01:42:43;65041.50;;;4.03;100.00
44675;BME280;30388;52.038;-1.478;2023-02-23T01:45:21;65021.18;;;3.78;100.00
44675;BME280;30388;52.038;-1.478;2023-02-23T01:47:50;65038.29;;;4.01;100.00
44675;BME280;30388;52.038;-1.478;2023-02-23T01:50:18;65060.96;;;3.80;100.00
44675;BME280;30388;52.038;-1.478;2023-02-23T01:52:46;65045.22;;;4.08;100.00
44675;BME280;30388;52.038;-1.478;2023-02-23T01:55:20;65030.85;;;3.91;100.00
44675;BME280;30388;52.038;-1.478;2023-02-23T01:57:49;65040.50;;;4.03;100.00
44675;BME280;30388;52.038;-1.478;2023-02-23T02:00:20;65029.16;;;3.88;100.00
44675;BME280;30388;52.038;-1.478;2023-02-23T02:02:48;64966.56;;;3.32;100.00
44675;BME280;30388;52.038;-1.478;2023-02-23T02:05:16;64965.15;;;3.30;100.00
44675;BME280;30388;52.038;-1.478;2023-02-23T02:07:47;64973.15;;;3.40;100.00
44675;BME280;30388;52.038;-1.478;2023-02-23T02:10:17;64973.69;;;3.67;100.00
44675;BME280;30388;52.038;-1.478;2023-02-23T02:12:47;64957.32;;;3.46;100.00
44675;BME280;30388;52.038;-1.478;2023-02-23T02:15:15;64993.35;;;3.65;100.00
44675;BME280;30388;52.038;-1.478;2023-02-23T02:17:48;64948.12;;;3.08;100.00
44675;BME280;30388;52.038;-1.478;2023-02-23T02:20:31;64931.20;;;3.13;100.00
44675;BME280;30388;52.038;-1.478;2023-02-23T02:23:52;64948.25;;;3.34;100.00
44675;BME280;30388;52.038;-1.478;2023-02-23T02:26:33;64892.22;;;2.86;100.00
44675;BME280;30388;52.038;-1.478;2023-02-23T02:29:29;64890.48;;;2.62;100.00
44675;BME280;30388;52.038;-1.478;2023-02-23T02:33:24;64858.47;;;2.69;100.00
44675;BME280;30388;52.038;-1.478;2023-02-23T02:38:32;64886.21;;;3.05;100.00
44675;BME280;30388;52.038;-1.478;2023-02-23T02:41:04;64945.62;;;3.05;100.00
44675;BME280;30388;52.038;-1.478;2023-02-23T02:43:46;64930.22;;;3.12;100.00
44675;BME280;30388;52.038;-1.478;2023-02-23T02:46:17;64918.47;;;3.19;100.00
44675;BME280;30388;52.038;-1.478;2023-02-23T02:48:53;64930.74;;;3.12;100.00
44675;BME280;30388;52.038;-1.478;2023-02-23T02:51:26;65013.68;;;3.91;100.00
44675;BME280;30388;52.038;-1.478;2023-02-23T02:54:02;65003.37;;;3.55;100.00
44675;BME280;30388;52.038;-1.478;2023-02-23T02:56:33;64977.19;;;3.44;100.00
44675;BME280;30388;52.038;-1.478;2023-02-23T02:59:02;64995.89;;;3.95;100.00
44675;BME280;30388;52.038;-1.478;2023-02-23T03:01:30;64976.08;;;3.69;100.00
44675;BME280;30388;52.038;-1.478;2023-02-23T03:03:58;65014.50;;;3.71;100.00
44675;BME280;30388;52.038;-1.478;2023-02-23T03:06:31;64990.31;;;3.87;100.00
44675;BME280;30388;52.038;-1.478;2023-02-23T03:09:05;65018.91;;;3.76;100.00
44675;BME280;30388;52.038;-1.478;2023-02-23T03:11:39;64992.08;;;3.42;100.00
44675;BME280;30388;52.038;-1.478;2023-02-23T03:14:17;65029.50;;;4.11;100.00
44675;BME280;30388;52.038;-1.478;2023-02-23T03:16:53;65027.41;;;3.86;100.00
44675;BME280;30388;52.038;-1.478;2023-02-23T03:19:25;65039.74;;;4.02;100.00
44675;BME280;30388;52.038;-1.478;2023-02-23T03:22:00;65067.30;;;4.36;100.00
44675;BME280;30388;52.038;-1.478;2023-02-23T03:24:36;65022.67;;;3.80;100.00
44675;BME280;30388;52.038;-1.478;2023-02-23T03:27:11;65033.28;;;3.71;100.00
44675;BME280;30388;52.038;-1.478;2023-02-23T03:29:46;65011.71;;;3.67;100.00
44675;BME280;30388;52.038;-1.478;2023-02-23T03:32:21;64963.68;;;3.28;100.00
44675;BME280;30388;52.038;-1.478;2023-02-23T03:34:54;64912.16;;;3.37;100.00
44675;BME280;30388;52.038;-1.478;2023-02-23T03:37:28;64912.57;;;2.89;100.00
44675;BME280;30388;52.038;-1.478;2023-02-23T03:40:04;64985.35;;;3.54;100.00
44675;BME280;30388;52.038;-1.478;2023-02-23T03:42:35;64960.25;;;3.49;100.00
44675;BME280;30388;52.038;-1.478;2023-02-23T03:45:07;64989.59;;;3.60;100.00
44675;BME280;30388;52.038;-1.478;2023-02-23T03:47:38;65025.37;;;3.83;100.00
44675;BME280;30388;52.038;-1.478;2023-02-23T03:50:10;65035.86;;;3.96;100.00
44675;BME280;30388;52.038;-1.478;2023-02-23T03:52:43;65036.65;;;3.98;100.00
44675;BME280;30388;52.038;-1.478;2023-02-23T03:55:22;65024.44;;;3.82;100.00
44675;BME280;30388;52.038;-1.478;2023-02-23T03:57:54;64984.31;;;3.54;100.00
44675;BME280;30388;52.038;-1.478;2023-02-23T04:00:28;64976.44;;;3.43;100.00
44675;BME280;30388;52.038;-1.478;2023-02-23T04:02:58;64956.08;;;3.18;100.00
44675;BME280;30388;52.038;-1.478;2023-02-23T04:05:28;64992.26;;;3.42;100.00
44675;BME280;30388;52.038;-1.478;2023-02-23T04:07:58;64995.32;;;3.68;100.00
44675;BME280;30388;52.038;-1.478;2023-02-23T04:10:29;64954.72;;;3.15;100.00
44675;BME280;30388;52.038;-1.478;2023-02-23T04:13:01;64959.98;;;3.23;100.00
44675;BME280;30388;52.038;-1.478;2023-02-23T04:15:33;64939.77;;;2.97;100.00
44675;BME280;30388;52.038;-1.478;2023-02-23T04:18:04;64923.28;;;3.03;100.00
44675;BME280;30388;52.038;-1.478;2023-02-23T04:20:32;64903.55;;;2.78;100.00
44675;BME280;30388;52.038;-1.478;2023-02-23T04:22:59;64893.83;;;2.66;100.00
44675;BME280;30388;52.038;-1.478;2023-02-23T04:25:28;64904.00;;;2.78;100.00
44675;BME280;30388;52.038;-1.478;2023-02-23T04:27:56;64896.94;;;2.69;100.00
44675;BME280;30388;52.038;-1.478;2023-02-23T04:30:23;64909.47;;;2.85;100.00
44675;BME280;30388;52.038;-1.478;2023-02-23T04:32:51;64906.36;;;2.81;100.00
44675;BME280;30388;52.038;-1.478;2023-02-23T04:35:18;64894.65;;;2.89;100.00
44675;BME280;30388;52.038;-1.478;2023-02-23T04:37:45;64878.72;;;2.68;100.00
44675;BME280;30388;52.038;-1.478;2023-02-23T04:40:13;64874.06;;;2.62;100.00
44675;BME280;30388;52.038;-1.478;2023-02-23T04:42:40;64869.93;;;2.58;100.00
44675;BME280;30388;52.038;-1.478;2023-02-23T04:45:08;64873.00;;;2.88;100.00
44675;BME280;30388;52.038;-1.478;2023-02-23T04:47:36;64899.80;;;2.96;100.00
44675;BME280;30388;52.038;-1.478;2023-02-23T04:50:04;64900.37;;;2.96;100.00
44675;BME280;30388;52.038;-1.478;2023-02-23T04:52:31;64890.77;;;2.83;100.00
44675;BME280;30388;52.038;-1.478;2023-02-23T04:54:59;64901.11;;;2.74;100.00
44675;BME280;30388;52.038;-1.478;2023-02-23T04:57:27;64915.04;;;2.92;100.00
44675;BME280;30388;52.038;-1.478;2023-02-23T04:59:54;64911.62;;;3.10;100.00
44675;BME280;30388;52.038;-1.478;2023-02-23T05:02:21;64904.79;;;3.01;100.00
44675;BME280;30388;52.038;-1.478;2023-02-23T05:04:49;64921.78;;;3.01;100.00
44675;BME280;30388;52.038;-1.478;2023-02-23T05:07:16;64893.74;;;3.14;100.00
44675;BME280;30388;52.038;-1.478;2023-02-23T05:09:44;64893.10;;;2.86;100.00
44675;BME280;30388;52.038;-1.478;2023-02-23T05:12:11;64907.94;;;3.05;100.00
44675;BME280;30388;52.038;-1.478;2023-02-23T05:14:38;64912.41;;;2.88;100.00
44675;BME280;30388;52.038;-1.478;2023-02-23T05:17:05;64898.76;;;2.72;100.00
44675;BME280;30388;52.038;-1.478;2023-02-23T05:19:33;64881.30;;;2.98;100.00
44675;BME280;30388;52.038;-1.478;2023-02-23T05:22:00;64855.11;;;2.65;100.00
44675;BME280;30388;52.038;-1.478;2023-02-23T05:24:28;64859.19;;;2.92;100.00
44675;BME280;30388;52.038;-1.478;2023-02-23T05:26:55;64862.57;;;2.74;100.00
44675;BME280;30388;52.038;-1.478;2023-02-23T05:29:22;64859.28;;;2.69;100.00
44675;BME280;30388;52.038;-1.478;2023-02-23T05:31:49;64868.05;;;2.81;100.00
44675;BME280;30388;52.038;-1.478;2023-02-23T05:34:17;64887.07;;;3.06;100.00
44675;BME280;30388;52.038;-1.478;2023-02-23T05:36:44;64861.56;;;2.95;100.00
44675;BME280;30388;52.038;-1.478;2023-02-23T05:39:11;64858.81;;;2.70;100.00
44675;BME280;30388;52.038;-1.478;2023-02-23T05:41:38;64863.78;;;2.76;100.00
44675;BME280;30388;52.038;-1.478;2023-02-23T05:44:05;64836.99;;;2.86;100.00
44675;BME280;30388;52.038;-1.478;2023-02-23T05:46:33;64841.08;;;2.69;100.00
44675;BME280;30388;52.038;-1.478;2023-02-23T05:49:00;64844.85;;;2.52;100.00
44675;BME280;30388;52.038;-1.478;2023-02-23T05:51:28;64814.16;;;2.57;100.00
44675;BME280;30388;52.038;-1.478;2023-02-23T05:53:55;64810.60;;;2.53;100.00
44675;BME280;30388;52.038;-1.478;2023-02-23T05:56:23;64821.73;;;2.45;100.00
44675;BME280;30388;52.038;-1.478;2023-02-23T05:58:52;64850.29;;;2.59;100.00
44675;BME280;30388;52.038;-1.478;2023-02-23T06:01:20;64854.04;;;2.63;100.00
44675;BME280;30388;52.038;-1.478;2023-02-23T06:03:48;64868.91;;;2.83;100.00
44675;BME280;30388;52.038;-1.478;2023-02-23T06:06:16;64874.20;;;2.90;100.00
44675;BME280;30388;52.038;-1.478;2023-02-23T06:08:44;64893.13;;;3.13;100.00
44675;BME280;30388;52.038;-1.478;2023-02-23T06:11:12;64897.30;;;3.19;100.00
44675;BME280;30388;52.038;-1.478;2023-02-23T06:13:39;64883.16;;;3.00;100.00
44675;BME280;30388;52.038;-1.478;2023-02-23T06:16:07;64884.84;;;3.03;100.00
44675;BME280;30388;52.038;-1.478;2023-02-23T06:18:34;64854.17;;;2.63;100.00
44675;BME280;30388;52.038;-1.478;2023-02-23T06:21:02;64845.71;;;2.75;100.00
44675;BME280;30388;52.038;-1.478;2023-02-23T06:23:31;64875.45;;;2.91;100.00
44675;BME280;30388;52.038;-1.478;2023-02-23T06:25:58;64851.27;;;2.60;100.00
44675;BME280;30388;52.038;-1.478;2023-02-23T06:28:26;64859.13;;;2.70;100.00
44675;BME280;30388;52.038;-1.478;2023-02-23T06:30:54;64852.20;;;2.61;100.00
44675;BME280;30388;52.038;-1.478;2023-02-23T06:33:23;64849.18;;;2.58;100.00
44675;BME280;30388;52.038;-1.478;2023-02-23T06:35:50;64867.62;;;2.81;100.00
44675;BME280;30388;52.038;-1.478;2023-02-23T06:38:18;64894.04;;;2.89;100.00
44675;BME280;30388;52.038;-1.478;2023-02-23T06:40:45;64877.56;;;2.94;100.00
44675;BME280;30388;52.038;-1.478;2023-02-23T06:43:12;64884.03;;;2.53;100.00
44675;BME280;30388;52.038;-1.478;2023-02-23T06:45:40;64889.48;;;2.83;100.00
44675;BME280;30388;52.038;-1.478;2023-02-23T06:48:07;64871.82;;;2.60;100.00
44675;BME280;30388;52.038;-1.478;2023-02-23T06:50:34;64872.32;;;2.87;100.00
44675;BME280;30388;52.038;-1.478;2023-02-23T06:53:01;64867.05;;;2.80;100.00
44675;BME280;30388;52.038;-1.478;2023-02-23T06:55:28;64883.96;;;3.02;100.00
44675;BME280;30388;52.038;-1.478;2023-02-23T06:57:55;64909.17;;;2.84;100.00
44675;BME280;30388;52.038;-1.478;2023-02-23T07:00:23;64894.56;;;2.89;100.00
44675;BME280;30388;52.038;-1.478;2023-02-23T07:02:50;64861.58;;;2.73;100.00
44675;BME280;30388;52.038;-1.478;2023-02-23T07:05:17;64859.42;;;2.93;100.00
44675;BME280;30388;52.038;-1.478;2023-02-23T07:07:45;64851.68;;;2.83;100.00
44675;BME280;30388;52.038;-1.478;2023-02-23T07:10:12;64863.71;;;2.49;100.00
44675;BME280;30388;52.038;-1.478;2023-02-23T07:12:40;64871.89;;;2.86;100.00
44675;BME280;30388;52.038;-1.478;2023-02-23T07:15:09;64856.38;;;2.67;100.00
44675;BME280;30388;52.038;-1.478;2023-02-23T07:17:36;64859.96;;;2.71;100.00
44675;BME280;30388;52.038;-1.478;2023-02-23T07:20:04;64845.73;;;2.53;100.00
44675;BME280;30388;52.038;-1.478;2023-02-23T07:22:31;64839.46;;;2.45;100.00
44675;BME280;30388;52.038;-1.478;2023-02-23T07:24:59;64842.82;;;2.71;100.00
44675;BME280;30388;52.038;-1.478;2023-02-23T07:27:27;64843.44;;;2.72;100.00
44675;BME280;30388;52.038;-1.478;2023-02-23T07:29:54;64841.89;;;2.48;100.00
44675;BME280;30388;52.038;-1.478;2023-02-23T07:32:21;64848.73;;;2.57;100.00
44675;BME280;30388;52.038;-1.478;2023-02-23T07:34:48;64841.41;;;2.70;100.00
44675;BME280;30388;52.038;-1.478;2023-02-23T07:37:15;64845.55;;;2.53;100.00
44675;BME280;30388;52.038;-1.478;2023-02-23T07:39:42;64856.13;;;2.66;100.00
44675;BME280;30388;52.038;-1.478;2023-02-23T07:42:10;64855.43;;;2.66;100.00
44675;BME280;30388;52.038;-1.478;2023-02-23T07:44:37;64869.34;;;2.84;100.00
44675;BME280;30388;52.038;-1.478;2023-02-23T07:47:04;64831.79;;;2.34;100.00
44675;BME280;30388;52.038;-1.478;2023-02-23T07:49:32;64864.73;;;2.77;100.00
44675;BME280;30388;52.038;-1.478;2023-02-23T07:52:00;64847.43;;;2.55;100.00
44675;BME280;30388;52.038;-1.478;2023-02-23T07:54:26;64853.43;;;2.37;100.00
44675;BME280;30388;52.038;-1.478;2023-02-23T07:56:54;64833.90;;;2.39;100.00
44675;BME280;30388;52.038;-1.478;2023-02-23T07:59:20;64849.52;;;2.32;100.00
44675;BME280;30388;52.038;-1.478;2023-02-23T08:01:47;64835.12;;;2.39;100.00
44675;BME280;30388;52.038;-1.478;2023-02-23T08:04:15;64818.28;;;2.19;100.00
44675;BME280;30388;52.038;-1.478;2023-02-23T08:06:42;64826.90;;;2.29;100.00
44675;BME280;30388;52.038;-1.478;2023-02-23T08:09:10;64823.56;;;2.47;100.00
44675;BME280;30388;52.038;-1.478;2023-02-23T08:11:38;64820.05;;;2.20;100.00
44675;BME280;30388;52.038;-1.478;2023-02-23T08:14:05;64834.76;;;2.39;100.00
44675;BME280;30388;52.038;-1.478;2023-02-23T08:16:32;64841.65;;;2.48;100.00
44675;BME280;30388;52.038;-1.478;2023-02-23T08:19:00;64816.05;;;2.15;100.00
44675;BME280;30388;52.038;-1.478;2023-02-23T08:21:28;64838.01;;;2.44;100.00
44675;BME280;30388;52.038;-1.478;2023-02-23T08:23:56;64812.16;;;2.33;100.00
44675;BME280;30388;52.038;-1.478;2023-02-23T08:26:24;64822.66;;;2.24;100.00
44675;BME280;30388;52.038;-1.478;2023-02-23T08:28:51;64843.12;;;2.50;100.00
44675;BME280;30388;52.038;-1.478;2023-02-23T08:31:18;64835.28;;;2.62;100.00
44675;BME280;30388;52.038;-1.478;2023-02-23T08:33:46;64855.29;;;2.65;100.00
44675;BME280;30388;52.038;-1.478;2023-02-23T08:36:13;64836.10;;;2.41;100.00
44675;BME280;30388;52.038;-1.478;2023-02-23T08:38:40;64838.01;;;2.88;100.00
44675;BME280;30388;52.038;-1.478;2023-02-23T08:41:07;64835.72;;;2.63;100.00
44675;BME280;30388;52.038;-1.478;2023-02-23T08:43:34;64872.90;;;2.87;100.00
44675;BME280;30388;52.038;-1.478;2023-02-23T08:46:00;64917.41;;;3.18;100.00
44675;BME280;30388;52.038;-1.478;2023-02-23T08:48:27;64874.74;;;3.13;100.00
44675;BME280;30388;52.038;-1.478;2023-02-23T08:50:56;64896.01;;;3.17;100.00
44675;BME280;30388;52.038;-1.478;2023-02-23T08:53:24;64887.75;;;3.07;100.00
44675;BME280;30388;52.038;-1.478;2023-02-23T08:55:55;64889.61;;;2.83;100.00
44675;BME280;30388;52.038;-1.478;2023-02-23T08:58:23;64860.08;;;2.72;100.00
44675;BME280;30388;52.038;-1.478;2023-02-23T09:00:50;64861.24;;;2.73;100.00
44675;BME280;30388;52.038;-1.478;2023-02-23T09:03:18;64844.78;;;2.75;100.00
44675;BME280;30388;52.038;-1.478;2023-02-23T09:05:46;64851.56;;;2.83;100.00
44675;BME280;30388;52.038;-1.478;2023-02-23T09:08:14;64841.67;;;2.93;100.00
44675;BME280;30388;52.038;-1.478;2023-02-23T09:10:41;64868.55;;;2.82;100.00
44675;BME280;30388;52.038;-1.478;2023-02-23T09:13:09;64898.55;;;2.71;100.00
44675;BME280;30388;52.038;-1.478;2023-02-23T09:15:38;64882.96;;;3.01;100.00
44675;BME280;30388;52.038;-1.478;2023-02-23T09:18:06;64883.82;;;3.01;100.00
44675;BME280;30388;52.038;-1.478;2023-02-23T09:20:34;64912.60;;;2.90;100.00
44675;BME280;30388;52.038;-1.478;2023-02-23T09:23:01;64911.01;;;3.10;100.00
44675;BME280;30388;52.038;-1.478;2023-02-23T09:25:29;64866.50;;;2.79;100.00
44675;BME280;30388;52.038;-1.478;2023-02-23T09:27:56;64854.65;;;2.86;100.00
44675;BME280;30388;52.038;-1.478;2023-02-23T09:30:23;64885.46;;;3.04;100.00
44675;BME280;30388;52.038;-1.478;2023-02-23T09:32:51;64894.76;;;3.16;100.00
44675;BME280;30388;52.038;-1.478;2023-02-23T09:35:21;64906.34;;;3.03;100.00
44675;BME280;30388;52.038;-1.478;2023-02-23T09:37:50;64907.93;;;3.06;100.00
44675;BME280;30388;52.038;-1.478;2023-02-23T09:40:22;64887.96;;;3.07;100.00
44675;BME280;30388;52.038;-1.478;2023-02-23T09:42:59;64906.11;;;3.30;100.00
44675;BME280;30388;52.038;-1.478;2023-02-23T09:45:35;64919.65;;;3.21;100.00
44675;BME280;30388;52.038;-1.478;2023-02-23T09:48:12;64898.64;;;3.21;100.00
44675;BME280;30388;52.038;-1.478;2023-02-23T09:50:42;64882.74;;;3.00;100.00
44675;BME280;30388;52.038;-1.478;2023-02-23T09:53:22;64880.85;;;2.98;100.00
44675;BME280;30388;52.038;-1.478;2023-02-23T09:55:53;64844.39;;;2.52;100.00
44675;BME280;30388;52.038;-1.478;2023-02-23T09:58:23;64879.01;;;2.95;100.00
44675;BME280;30388;52.038;-1.478;2023-02-23T10:01:04;64892.43;;;3.12;100.00
44675;BME280;30388;52.038;-1.478;2023-02-23T10:03:37;64907.11;;;3.31;100.00
44675;BME280;30388;52.038;-1.478;2023-02-23T10:06:09;64917.34;;;3.18;100.00
44675;BME280;30388;52.038;-1.478;2023-02-23T10:08:44;64925.57;;;3.06;100.00
44675;BME280;30388;52.038;-1.478;2023-02-23T10:11:22;64907.67;;;3.06;100.00
44675;BME280;30388;52.038;-1.478;2023-02-23T10:13:58;64911.31;;;3.37;100.00
44675;BME280;30388;52.038;-1.478;2023-02-23T10:16:34;64963.11;;;3.53;100.00
44675;BME280;30388;52.038;-1.478;2023-02-23T10:19:11;64954.40;;;3.43;100.00
44675;BME280;30388;52.038;-1.478;2023-02-23T10:21:47;64928.05;;;3.32;100.00
44675;BME280;30388;52.038;-1.478;2023-02-23T10:24:21;64940.80;;;3.74;100.00
44675;BME280;30388;52.038;-1.478;2023-02-23T10:26:53;64976.39;;;3.71;100.00
44675;BME280;30388;52.038;-1.478;2023-02-23T10:29:25;65003.01;;;4.05;100.00
44675;BME280;30388;52.038;-1.478;2023-02-23T10:31:56;65034.28;;;4.18;100.00
44675;BME280;30388;52.038;-1.478;2023-02-23T10:34:26;65012.05;;;4.16;100.00
44675;BME280;30388;52.038;-1.478;2023-02-23T10:36:57;64977.34;;;3.72;100.00
44675;BME280;30388;52.038;-1.478;2023-02-23T10:39:25;64991.59;;;3.90;100.00
44675;BME280;30388;52.038;-1.478;2023-02-23T10:41:53;64994.83;;;3.95;100.00
44675;BME280;30388;52.038;-1.478;2023-02-23T10:44:22;65002.33;;;4.04;100.00
44675;BME280;30388;52.038;-1.478;2023-02-23T10:46:53;64996.23;;;3.96;100.00
44675;BME280;30388;52.038;-1.478;2023-02-23T10:49:24;65007.92;;;4.11;100.00
44675;BME280;30388;52.038;-1.478;2023-02-23T10:51:53;64999.42;;;4.00;100.00
44675;BME280;30388;52.038;-1.478;2023-02-23T10:54:52;65016.54;;;4.22;100.00
44675;BME280;30388;52.038;-1.478;2023-02-23T10:57:23;65029.70;;;4.39;100.00
44675;BME280;30388;52.038;-1.478;2023-02-23T11:00:07;65028.09;;;4.37;100.00
44675;BME280;30388;52.038;-1.478;2023-02-23T11:02:47;65055.80;;;4.45;100.00
44675;BME280;30388;52.038;-1.478;2023-02-23T11:05:30;65076.41;;;4.71;100.00
44675;BME280;30388;52.038;-1.478;2023-02-23T11:08:33;65047.40;;;4.35;100.00
44675;BME280;30388;52.038;-1.478;2023-02-23T11:11:05;65048.03;;;4.35;100.00
44675;BME280;30388;52.038;-1.478;2023-02-23T11:13:37;65065.27;;;4.35;100.00
44675;BME280;30388;52.038;-1.478;2023-02-23T11:16:08;65054.14;;;4.43;100.00
44675;BME280;30388;52.038;-1.478;2023-02-23T11:18:36;65070.99;;;4.65;100.00
44675;BME280;30388;52.038;-1.478;2023-02-23T11:21:09;65061.86;;;4.79;100.00
44675;BME280;30388;52.038;-1.478;2023-02-23T11:23:38;65060.42;;;4.50;100.00
44675;BME280;30388;52.038;-1.478;2023-02-23T11:26:21;65062.10;;;4.54;100.00
44675;BME280;30388;52.038;-1.478;2023-02-23T11:28:52;65060.58;;;4.51;100.00
44675;BME280;30388;52.038;-1.478;2023-02-23T11:31:25;65051.79;;;4.67;100.00
44675;BME280;30388;52.038;-1.478;2023-02-23T11:33:55;65094.93;;;4.73;100.00
44675;BME280;30388;52.038;-1.478;2023-02-23T11:36:27;65071.70;;;4.66;100.00
44675;BME280;30388;52.038;-1.478;2023-02-23T11:39:06;65058.22;;;4.49;100.00
44675;BME280;30388;52.038;-1.478;2023-02-23T11:41:34;65068.89;;;4.40;100.00
44675;BME280;30388;52.038;-1.478;2023-02-23T11:44:03;65075.20;;;4.69;100.00
44675;BME280;30388;52.038;-1.478;2023-02-23T11:46:34;65088.40;;;4.64;100.00
44675;BME280;30388;52.038;-1.478;2023-02-23T11:49:05;65092.73;;;4.69;100.00
44675;BME280;30388;52.038;-1.478;2023-02-23T11:51:34;65066.76;;;4.59;100.00
44675;BME280;30388;52.038;-1.478;2023-02-23T11:54:03;65071.96;;;4.65;100.00
44675;BME280;30388;52.038;-1.478;2023-02-23T11:56:33;65097.67;;;4.98;100.00
44675;BME280;30388;52.038;-1.478;2023-02-23T11:59:02;65110.07;;;4.91;100.00
44675;BME280;30388;52.038;-1.478;2023-02-23T12:01:41;65079.81;;;4.76;100.00
44675;BME280;30388;52.038;-1.478;2023-02-23T12:04:10;65086.46;;;4.62;100.00
44675;BME280;30388;52.038;-1.478;2023-02-23T12:06:49;65124.23;;;4.87;100.00
44675;BME280;30388;52.038;-1.478;2023-02-23T12:09:21;65115.97;;;4.99;100.00
44675;BME280;30388;52.038;-1.478;2023-02-23T12:11:53;65086.07;;;4.83;100.00
44675;BME280;30388;52.038;-1.478;2023-02-23T12:14:29;65063.59;;;4.33;100.00
44675;BME280;30388;52.038;-1.478;2023-02-23T12:17:02;65056.59;;;4.73;100.00
44675;BME280;30388;52.038;-1.478;2023-02-23T12:19:34;65047.46;;;4.34;100.00
44675;BME280;30388;52.038;-1.478;2023-02-23T12:22:05;65054.48;;;4.43;100.00
44675;BME280;30388;52.038;-1.478;2023-02-23T12:24:42;65044.99;;;4.09;100.00
44675;BME280;30388;52.038;-1.478;2023-02-23T12:27:13;65064.40;;;4.56;100.00
44675;BME280;30388;52.038;-1.478;2023-02-23T12:29:52;65025.55;;;4.33;100.00
44675;BME280;30388;52.038;-1.478;2023-02-23T12:32:24;65024.83;;;4.33;100.00
44675;BME280;30388;52.038;-1.478;2023-02-23T12:34:57;65013.62;;;4.19;100.00
44675;BME280;30388;52.038;-1.478;2023-02-23T12:37:34;65080.34;;;4.53;100.00
44675;BME280;30388;52.038;-1.478;2023-02-23T12:40:13;65082.00;;;4.57;100.00
44675;BME280;30388;52.038;-1.478;2023-02-23T12:42:45;65109.60;;;4.92;100.00
44675;BME280;30388;52.038;-1.478;2023-02-23T12:45:22;65113.76;;;4.74;100.00
44675;BME280;30388;52.038;-1.478;2023-02-23T12:47:58;65099.45;;;4.78;100.00
44675;BME280;30388;52.038;-1.478;2023-02-23T12:50:32;65074.98;;;4.69;100.00
44675;BME280;30388;52.038;-1.478;2023-02-23T12:53:08;65099.89;;;4.57;100.00
44675;BME280;30388;52.038;-1.478;2023-02-23T12:55:47;65085.28;;;4.61;100.00
44675;BME280;30388;52.038;-1.478;2023-02-23T12:58:23;65134.63;;;5.23;100.00
44675;BME280;30388;52.038;-1.478;2023-02-23T13:00:57;65119.01;;;5.04;100.00
44675;BME280;30388;52.038;-1.478;2023-02-23T13:03:47;65114.12;;;4.96;100.00
44675;BME280;30388;52.038;-1.478;2023-02-23T13:06:28;65128.00;;;4.93;100.00
44675;BME280;30388;52.038;-1.478;2023-02-23T13:09:12;65140.37;;;5.30;100.00
44675;BME280;30388;52.038;-1.478;2023-02-23T13:12:02;65129.53;;;5.17;100.00